createdAt,value
2019-02-06T00:00:52.734Z,40.53
2019-02-06T00:03:23.326Z,42.23
2019-02-06T00:05:53.378Z,41.93
2019-02-06T00:08:23.323Z,41.30
2019-02-06T00:10:53.362Z,42.30
2019-02-06T00:13:23.289Z,42.07
2019-02-06T00:15:53.813Z,41.17
2019-02-06T00:18:24.209Z,41.43
2019-02-06T00:20:54.056Z,39.83
2019-02-06T00:23:24.071Z,40.40
2019-02-06T00:25:53.978Z,44.87
2019-02-06T00:28:23.933Z,42.20
2019-02-06T00:30:53.972Z,38.80
2019-02-06T00:33:23.870Z,41.20
2019-02-06T00:35:53.724Z,38.07
2019-02-06T00:38:23.615Z,40.43
2019-02-06T00:40:53.519Z,46.37
2019-02-06T00:43:23.437Z,45.77
2019-02-06T00:45:53.277Z,38.70
2019-02-06T00:48:23.258Z,39.57
2019-02-06T00:50:53.218Z,36.10
2019-02-06T00:53:23.197Z,38.33
2019-02-06T00:55:53.033Z,39.33
2019-02-06T00:58:23.705Z,39.20
2019-02-06T01:00:53.687Z,37.53
2019-02-06T01:03:24.048Z,36.20
2019-02-06T01:05:53.916Z,36.30
2019-02-06T01:08:23.776Z,37.97
2019-02-06T01:10:53.769Z,37.57
2019-02-06T01:13:23.991Z,36.00
2019-02-06T01:15:53.839Z,36.03
2019-02-06T01:18:23.833Z,37.33
2019-02-06T01:20:53.737Z,36.27
2019-02-06T01:23:23.598Z,35.53
2019-02-06T01:25:53.579Z,36.80
2019-02-06T01:28:24.161Z,34.20
2019-02-06T01:31:00.847Z,35.40
2019-02-06T01:33:31.162Z,36.90
2019-02-06T01:36:00.992Z,35.50
2019-02-06T01:38:30.848Z,36.33
2019-02-06T01:41:01.418Z,37.67
2019-02-06T01:43:31.746Z,39.47
2019-02-06T01:46:01.588Z,37.20
2019-02-06T01:48:31.481Z,39.33
2019-02-06T01:51:01.301Z,39.30
2019-02-06T01:53:31.302Z,37.73
2019-02-06T01:56:01.849Z,33.70
2019-02-06T01:58:31.723Z,34.50
2019-02-06T02:01:01.822Z,34.77
2019-02-06T02:03:31.714Z,35.37
2019-02-06T02:06:02.752Z,35.13
2019-02-06T02:08:34.605Z,34.80
2019-02-06T02:11:05.197Z,33.93
2019-02-06T02:13:35.166Z,34.47
2019-02-06T02:16:05.340Z,33.97
2019-02-06T02:18:35.197Z,32.97
2019-02-06T02:21:05.201Z,34.20
2019-02-06T02:23:35.039Z,33.90
2019-02-06T02:26:05.061Z,34.27
2019-02-06T02:28:34.934Z,35.37
2019-02-06T02:31:04.865Z,35.53
2019-02-06T02:33:34.765Z,34.90
2019-02-06T02:36:14.871Z,35.27
2019-02-06T02:38:36.323Z,33.27
2019-02-06T02:41:06.324Z,33.97
2019-02-06T02:43:36.175Z,34.10
2019-02-06T02:46:06.262Z,33.90
2019-02-06T02:48:36.508Z,34.80
2019-02-06T02:51:06.574Z,34.57
2019-02-06T02:53:36.902Z,33.33
2019-02-06T02:56:06.881Z,33.97
2019-02-06T02:58:36.721Z,33.07
2019-02-06T03:01:28.471Z,33.57
2019-02-06T03:04:06.591Z,34.00
2019-02-06T03:06:36.465Z,32.10
2019-02-06T03:09:13.744Z,33.13
2019-02-06T03:11:43.675Z,32.83
2019-02-06T03:14:14.042Z,33.27
2019-02-06T03:16:43.914Z,32.03
2019-02-06T03:19:14.457Z,33.17
2019-02-06T03:21:44.287Z,31.53
2019-02-06T03:24:14.287Z,32.93
2019-02-06T03:26:44.156Z,32.03
2019-02-06T03:29:14.541Z,32.73
2019-02-06T03:31:44.435Z,33.93
2019-02-06T03:34:14.379Z,33.10
2019-02-06T03:36:44.235Z,33.67
2019-02-06T03:39:14.276Z,31.20
2019-02-06T03:41:44.139Z,32.40
2019-02-06T03:44:14.211Z,33.03
2019-02-06T03:46:44.063Z,31.83
2019-02-06T03:49:13.948Z,32.17
2019-02-06T03:51:43.909Z,31.67
2019-02-06T03:54:13.807Z,30.80
2019-02-06T03:56:43.723Z,33.13
2019-02-06T03:59:13.738Z,33.70
2019-02-06T04:01:43.642Z,33.73
2019-02-06T04:04:13.579Z,30.87
2019-02-06T04:06:53.672Z,31.87
2019-02-06T04:09:14.974Z,31.03
2019-02-06T04:11:45.222Z,30.80
2019-02-06T04:14:15.109Z,30.43
2019-02-06T04:16:45.163Z,33.03
2019-02-06T04:19:15.075Z,32.30
2019-02-06T04:21:44.957Z,30.60
2019-02-06T04:24:15.310Z,30.63
2019-02-06T04:26:45.299Z,31.77
2019-02-06T04:29:15.214Z,31.17
2019-02-06T04:31:45.041Z,31.40
2019-02-06T04:34:14.963Z,30.03
2019-02-06T04:36:44.828Z,28.97
2019-02-06T04:39:14.753Z,33.30
2019-02-06T04:41:44.858Z,33.60
2019-02-06T04:44:14.734Z,32.60
2019-02-06T04:46:44.615Z,32.77
2019-02-06T04:49:14.529Z,32.90
2019-02-06T04:51:44.379Z,32.40
2019-02-06T04:54:14.210Z,31.17
2019-02-06T04:56:44.085Z,31.00
2019-02-06T04:59:14.050Z,32.90
2019-02-06T05:01:43.863Z,30.53
2019-02-06T05:04:13.825Z,30.93
2019-02-06T05:06:43.737Z,30.37
2019-02-06T05:09:13.578Z,29.00
2019-02-06T05:11:43.442Z,30.13
2019-02-06T05:14:13.334Z,29.20
2019-02-06T05:16:43.245Z,30.07
2019-02-06T05:19:13.100Z,29.67
2019-02-06T05:21:42.947Z,29.07
2019-02-06T05:24:12.902Z,28.70
2019-02-06T05:26:42.785Z,30.17
2019-02-06T05:29:12.663Z,30.17
2019-02-06T05:31:42.552Z,29.63
2019-02-06T05:34:12.397Z,29.60
2019-02-06T05:36:42.350Z,30.87
2019-02-06T05:39:12.273Z,30.17
2019-02-06T05:41:42.333Z,39.17
2019-02-06T05:44:12.309Z,71.80
2019-02-06T05:46:42.361Z,49.60
2019-02-06T05:49:13.163Z,39.93
2019-02-06T05:51:43.074Z,35.70
2019-02-06T05:54:12.929Z,34.23
2019-02-06T05:56:42.786Z,30.33
2019-02-06T05:59:12.674Z,34.63
2019-02-06T06:01:42.530Z,29.73
2019-02-06T06:04:12.378Z,29.97
2019-02-06T06:06:42.317Z,31.53
2019-02-06T06:09:12.266Z,29.80
2019-02-06T06:11:42.090Z,28.00
2019-02-06T06:14:11.982Z,29.33
2019-02-06T06:16:41.824Z,28.27
2019-02-06T06:19:11.723Z,30.00
2019-02-06T06:21:41.594Z,31.70
2019-02-06T06:24:11.471Z,33.73
2019-02-06T06:26:41.482Z,30.13
2019-02-06T06:29:11.374Z,30.13
2019-02-06T06:31:41.254Z,29.43
2019-02-06T06:34:11.145Z,34.80
2019-02-06T06:36:41.066Z,34.03
2019-02-06T06:39:11.416Z,38.63
2019-02-06T06:41:41.287Z,34.23
2019-02-06T06:44:11.394Z,32.07
2019-02-06T06:46:41.262Z,37.93
2019-02-06T06:49:11.070Z,41.57
2019-02-06T06:51:40.987Z,30.80
2019-02-06T06:54:11.050Z,38.63
2019-02-06T06:56:40.965Z,40.57
2019-02-06T06:59:22.945Z,46.70
2019-02-06T07:01:52.849Z,35.60
2019-02-06T07:04:22.708Z,45.70
2019-02-06T07:06:52.611Z,34.57
2019-02-06T07:09:22.666Z,41.37
2019-02-06T07:11:52.639Z,35.77
2019-02-06T07:14:22.529Z,30.73
2019-02-06T07:16:52.385Z,41.87
2019-02-06T07:19:22.275Z,34.47
2019-02-06T07:21:52.802Z,36.43
2019-02-06T07:24:22.648Z,30.27
2019-02-06T07:26:52.569Z,38.90
2019-02-06T07:29:22.447Z,40.53
2019-02-06T07:31:52.401Z,47.30
2019-02-06T07:34:22.269Z,36.53
2019-02-06T07:36:52.822Z,36.90
2019-02-06T07:39:22.714Z,34.67
2019-02-06T07:41:52.635Z,37.47
2019-02-06T07:44:22.477Z,38.53
2019-02-06T07:46:52.363Z,46.37
2019-02-06T07:49:22.240Z,39.33
2019-02-06T07:51:52.159Z,36.70
2019-02-06T07:54:22.040Z,30.30
2019-02-06T07:56:53.204Z,31.53
2019-02-06T07:59:25.488Z,33.43
2019-02-06T08:01:55.445Z,26.93
2019-02-06T08:04:25.319Z,28.13
2019-02-06T08:06:55.659Z,30.97
2019-02-06T08:09:25.944Z,32.77
2019-02-06T08:11:55.858Z,28.77
2019-02-06T08:14:25.738Z,30.47
2019-02-06T08:16:56.643Z,39.00
2019-02-06T08:19:27.265Z,34.50
2019-02-06T08:21:57.226Z,30.43
2019-02-06T08:24:27.291Z,28.43
2019-02-06T08:26:57.131Z,26.83
2019-02-06T08:29:27.407Z,28.00
2019-02-06T08:31:57.282Z,26.87
2019-02-06T08:34:27.861Z,28.77
2019-02-06T08:36:57.701Z,27.90
2019-02-06T08:39:27.618Z,26.93
2019-02-06T08:41:57.463Z,31.73
2019-02-06T08:44:27.327Z,27.13
2019-02-06T08:46:57.245Z,27.03
2019-02-06T08:49:27.123Z,28.97
2019-02-06T08:51:57.002Z,25.87
2019-02-06T08:54:26.917Z,24.77
2019-02-06T08:56:56.871Z,25.70
2019-02-06T08:59:45.168Z,34.43
2019-02-06T09:02:15.069Z,27.00
2019-02-06T09:04:55.222Z,36.37
2019-02-06T09:07:16.545Z,28.27
2019-02-06T09:09:46.505Z,26.60
2019-02-06T09:12:16.475Z,26.60
2019-02-06T09:14:46.891Z,27.13
2019-02-06T09:17:16.782Z,24.23
2019-02-06T09:19:47.957Z,31.07
2019-02-06T09:22:17.876Z,30.77
2019-02-06T09:24:47.934Z,25.30
2019-02-06T09:27:18.521Z,27.53
2019-02-06T09:29:48.497Z,27.93
2019-02-06T09:32:18.378Z,27.57
2019-02-06T09:34:52.347Z,27.43
2019-02-06T09:37:22.323Z,37.63
2019-02-06T09:39:52.283Z,35.23
2019-02-06T09:42:22.643Z,32.50
2019-02-06T09:44:52.471Z,30.43
2019-02-06T09:47:22.358Z,26.07
2019-02-06T09:49:55.036Z,28.57
2019-02-06T09:52:28.529Z,35.10
2019-02-06T09:55:00.316Z,30.10
2019-02-06T09:57:30.215Z,32.33
2019-02-06T10:00:01.583Z,32.43
2019-02-06T10:02:31.539Z,30.67
2019-02-06T10:05:01.426Z,29.57
2019-02-06T10:07:31.262Z,27.43
2019-02-06T10:10:01.759Z,30.07
2019-02-06T10:12:31.838Z,29.00
2019-02-06T10:15:01.758Z,28.30
2019-02-06T10:17:36.176Z,27.40
2019-02-06T10:20:07.351Z,27.03
2019-02-06T10:22:37.783Z,26.77
2019-02-06T10:25:07.924Z,31.20
2019-02-06T10:27:37.900Z,27.53
2019-02-06T10:30:11.117Z,31.13
2019-02-06T10:32:42.412Z,31.43
2019-02-06T10:35:12.452Z,31.37
2019-02-06T10:37:42.366Z,28.97
2019-02-06T10:40:12.551Z,28.73
2019-02-06T10:42:42.566Z,26.43
2019-02-06T10:45:13.749Z,27.57
2019-02-06T10:47:43.893Z,29.27
2019-02-06T10:50:16.587Z,32.40
2019-02-06T10:52:48.384Z,37.53
2019-02-06T10:55:19.141Z,34.53
2019-02-06T10:57:49.190Z,32.77
2019-02-06T11:00:30.003Z,32.27
2019-02-06T11:03:02.729Z,26.27
2019-02-06T11:05:32.651Z,28.83
2019-02-06T11:08:02.631Z,26.53
2019-02-06T11:10:32.602Z,27.50
2019-02-06T11:13:02.867Z,28.37
2019-02-06T11:15:37.263Z,25.20
2019-02-06T11:18:10.770Z,24.97
2019-02-06T11:20:40.831Z,27.40
2019-02-06T11:23:10.941Z,26.50
2019-02-06T11:25:40.969Z,24.10
2019-02-06T11:28:10.912Z,27.27
2019-02-06T11:30:41.123Z,25.60
2019-02-06T11:33:11.740Z,25.23
2019-02-06T11:35:41.811Z,27.73
2019-02-06T11:38:11.798Z,30.40
2019-02-06T11:40:42.055Z,29.13
2019-02-06T11:43:12.705Z,29.20
2019-02-06T11:45:42.629Z,24.47
2019-02-06T11:48:12.607Z,24.73
2019-02-06T11:50:44.119Z,23.57
2019-02-06T11:53:19.195Z,24.70
2019-02-06T11:55:49.575Z,23.83
2019-02-06T11:58:19.542Z,24.30
2019-02-06T12:01:05.091Z,24.83
2019-02-06T12:03:35.023Z,24.67
2019-02-06T12:06:06.185Z,23.37
2019-02-06T12:08:36.132Z,25.03
2019-02-06T12:11:06.367Z,23.03
2019-02-06T12:13:36.235Z,19.57
2019-02-06T12:16:06.200Z,21.80
2019-02-06T12:18:36.158Z,21.23
2019-02-06T12:21:06.206Z,21.40
2019-02-06T12:23:36.082Z,18.83
2019-02-06T12:26:06.607Z,24.80
2019-02-06T12:28:36.472Z,20.57
2019-02-06T12:31:06.904Z,20.47
2019-02-06T12:33:36.877Z,19.13
2019-02-06T12:36:06.887Z,22.57
2019-02-06T12:38:36.870Z,23.20
2019-02-06T12:41:06.979Z,27.67
2019-02-06T12:43:36.840Z,48.20
2019-02-06T12:46:06.971Z,57.30
2019-02-06T12:48:36.875Z,30.43
2019-02-06T12:51:07.053Z,25.17
2019-02-06T12:53:36.906Z,23.23
2019-02-06T12:56:06.923Z,32.63
2019-02-06T12:58:36.765Z,30.90
2019-02-06T13:01:07.165Z,28.17
2019-02-06T13:03:37.135Z,30.73
2019-02-06T13:06:07.086Z,34.97
2019-02-06T13:08:37.032Z,36.90
2019-02-06T13:11:07.129Z,27.70
2019-02-06T13:13:36.982Z,28.60
2019-02-06T13:16:06.976Z,24.43
2019-02-06T13:18:36.858Z,16.90
2019-02-06T13:21:06.708Z,14.93
2019-02-06T13:23:37.063Z,17.17
2019-02-06T13:26:07.152Z,15.10
2019-02-06T13:28:37.011Z,14.93
2019-02-06T13:31:07.955Z,16.07
2019-02-06T13:33:37.833Z,14.10
2019-02-06T13:36:10.582Z,15.40
2019-02-06T13:38:40.463Z,22.03
2019-02-06T13:41:10.419Z,18.77
2019-02-06T13:43:40.329Z,23.50
2019-02-06T13:46:10.464Z,17.67
2019-02-06T13:48:40.331Z,18.70
2019-02-06T13:51:17.411Z,16.00
2019-02-06T13:53:42.441Z,16.70
2019-02-06T13:56:12.649Z,17.93
2019-02-06T13:58:42.588Z,21.47
2019-02-06T14:01:25.099Z,24.47
2019-02-06T14:03:44.059Z,25.17
2019-02-06T14:06:14.209Z,27.87
2019-02-06T14:08:45.430Z,25.87
2019-02-06T14:11:15.725Z,26.33
2019-02-06T14:13:45.875Z,31.20
2019-02-06T14:16:16.190Z,34.47
2019-02-06T14:18:49.462Z,35.47
2019-02-06T14:21:19.382Z,34.63
2019-02-06T14:24:19.670Z,33.47
2019-02-06T14:27:06.957Z,25.67
2019-02-06T14:30:13.230Z,30.03
2019-02-06T14:33:28.791Z,33.00
2019-02-06T14:36:27.434Z,37.27
2019-02-06T14:39:20.727Z,32.83
2019-02-06T14:42:17.853Z,33.27
2019-02-06T14:45:09.967Z,35.57
2019-02-06T14:48:27.694Z,37.87
2019-02-06T14:51:42.908Z,48.47
2019-02-06T14:54:58.747Z,55.83
2019-02-06T14:58:11.038Z,62.20
2019-02-06T15:01:25.014Z,63.33
2019-02-06T15:04:17.368Z,52.50
2019-02-06T15:07:22.180Z,43.80
2019-02-06T15:10:22.927Z,42.37
2019-02-06T15:13:16.667Z,44.10
2019-02-06T15:16:26.415Z,37.43
2019-02-06T15:19:24.381Z,33.47
2019-02-06T15:22:47.639Z,39.17
2019-02-06T15:25:44.040Z,33.50
2019-02-06T15:28:50.429Z,32.27
2019-02-06T15:31:45.640Z,32.67
2019-02-06T15:35:05.513Z,34.57
2019-02-06T15:38:09.390Z,34.77
2019-02-06T15:41:31.252Z,35.43
2019-02-06T15:44:45.975Z,36.27
2019-02-06T15:47:39.052Z,32.57
2019-02-06T15:50:57.727Z,30.63
2019-02-06T15:54:10.971Z,31.53
2019-02-06T15:57:26.514Z,31.93
2019-02-06T16:00:25.177Z,32.33
2019-02-06T16:03:16.218Z,31.27
2019-02-06T16:06:38.649Z,26.83
2019-02-06T16:09:58.459Z,26.70
2019-02-06T16:12:54.580Z,33.80
2019-02-06T16:15:33.245Z,36.53
2019-02-06T16:18:28.189Z,32.67
2019-02-06T16:21:26.967Z,33.47
2019-02-06T16:24:11.853Z,28.63
2019-02-06T16:27:25.770Z,29.50
2019-02-06T16:30:39.541Z,32.17
2019-02-06T16:33:35.495Z,30.13
2019-02-06T16:36:28.633Z,34.47
2019-02-06T16:39:32.395Z,30.47
2019-02-06T16:42:28.633Z,29.83
2019-02-06T16:45:16.708Z,30.57
2019-02-06T16:48:16.849Z,32.07
2019-02-06T16:51:12.279Z,31.13
2019-02-06T16:54:14.587Z,33.53
2019-02-06T16:57:10.351Z,35.17
2019-02-06T17:00:02.620Z,47.33
2019-02-06T17:03:22.614Z,62.13
2019-02-06T17:06:16.454Z,56.00
2019-02-06T17:09:48.261Z,61.93
2019-02-06T17:12:30.280Z,70.10
2019-02-06T17:15:40.970Z,95.67
2019-02-06T17:18:32.887Z,125.43
2019-02-06T17:21:29.381Z,141.80
2019-02-06T17:24:39.898Z,132.43
2019-02-06T17:27:24.762Z,103.70
2019-02-06T17:30:26.338Z,103.67
2019-02-06T17:33:36.782Z,98.60
2019-02-06T17:36:59.608Z,92.43
2019-02-06T17:40:06.282Z,81.60
2019-02-06T17:43:30.896Z,85.67
2019-02-06T17:46:40.887Z,89.53
2019-02-06T17:49:39.356Z,92.27
2019-02-06T17:52:41.825Z,99.90
2019-02-06T17:55:26.073Z,96.60
2019-02-06T17:57:58.251Z,81.97
2019-02-06T18:00:51.718Z,75.40
2019-02-06T18:03:21.639Z,65.93
2019-02-06T18:05:52.622Z,59.53
2019-02-06T18:08:22.537Z,52.50
2019-02-06T18:10:52.507Z,47.00
2019-02-06T18:13:24.485Z,43.23
2019-02-06T18:15:55.592Z,43.43
2019-02-06T18:18:35.406Z,42.27
2019-02-06T18:21:06.580Z,46.00
2019-02-06T18:23:36.422Z,59.93
2019-02-06T18:26:07.907Z,56.97
2019-02-06T18:28:39.846Z,55.87
2019-02-06T18:31:10.156Z,56.30
2019-02-06T18:33:40.103Z,57.67
2019-02-06T18:36:12.563Z,55.83
2019-02-06T18:38:46.896Z,58.67
2019-02-06T18:41:14.826Z,60.90
2019-02-06T18:43:44.866Z,63.10
2019-02-06T18:46:15.450Z,72.33
2019-02-06T18:48:45.364Z,67.67
2019-02-06T18:51:15.239Z,67.53
2019-02-06T18:53:45.401Z,70.67
2019-02-06T18:56:15.630Z,61.70
2019-02-06T18:58:45.489Z,57.07
2019-02-06T19:01:15.332Z,56.70
2019-02-06T19:03:46.874Z,58.83
2019-02-06T19:06:18.885Z,57.27
2019-02-06T19:08:48.447Z,58.70
2019-02-06T19:11:18.454Z,59.07
2019-02-06T19:13:48.541Z,58.20
2019-02-06T19:16:18.399Z,58.67
2019-02-06T19:18:49.410Z,56.63
2019-02-06T19:21:21.154Z,53.03
2019-02-06T19:23:53.801Z,55.60
2019-02-06T19:26:23.695Z,56.13
2019-02-06T19:28:53.559Z,58.43
2019-02-06T19:31:23.547Z,59.47
2019-02-06T19:33:53.458Z,60.37
2019-02-06T19:36:23.785Z,67.90
2019-02-06T19:38:53.734Z,66.27
2019-02-06T19:41:23.669Z,72.83
2019-02-06T19:43:53.529Z,72.23
2019-02-06T19:46:23.379Z,68.27
2019-02-06T19:48:53.331Z,61.57
2019-02-06T19:51:23.311Z,60.67
2019-02-06T19:53:53.347Z,61.63
2019-02-06T19:56:23.243Z,55.97
2019-02-06T19:58:53.098Z,55.00
2019-02-06T20:01:23.106Z,53.50
2019-02-06T20:03:53.077Z,57.00
2019-02-06T20:06:29.831Z,58.07
2019-02-06T20:09:02.070Z,60.27
2019-02-06T20:11:32.034Z,59.70
2019-02-06T20:14:02.049Z,59.03
2019-02-06T20:16:31.922Z,58.90
2019-02-06T20:19:01.908Z,57.17
2019-02-06T20:21:31.835Z,60.93
2019-02-06T20:24:02.108Z,61.53
2019-02-06T20:26:32.099Z,59.07
2019-02-06T20:29:02.108Z,59.27
2019-02-06T20:31:32.021Z,61.43
2019-02-06T20:34:01.944Z,60.87
2019-02-06T20:36:35.529Z,58.67
2019-02-06T20:39:09.170Z,59.33
2019-02-06T20:41:39.866Z,54.90
2019-02-06T20:44:10.094Z,55.50
2019-02-06T20:46:40.128Z,60.40
2019-02-06T20:49:10.152Z,65.13
2019-02-06T20:51:40.082Z,63.43
2019-02-06T20:54:10.781Z,62.77
2019-02-06T20:56:40.662Z,61.53
2019-02-06T20:59:10.625Z,57.80
2019-02-06T21:01:40.490Z,56.07
2019-02-06T21:04:10.373Z,56.40
2019-02-06T21:06:40.399Z,55.37
2019-02-06T21:09:17.134Z,55.20
2019-02-06T21:11:47.014Z,54.33
2019-02-06T21:14:17.463Z,55.37
2019-02-06T21:16:47.437Z,57.17
2019-02-06T21:19:17.735Z,55.63
2019-02-06T21:21:47.678Z,54.63
2019-02-06T21:24:17.608Z,54.23
2019-02-06T21:26:47.579Z,55.23
2019-02-06T21:29:20.252Z,55.10
2019-02-06T21:31:50.147Z,55.67
2019-02-06T21:34:20.240Z,55.87
2019-02-06T21:36:50.551Z,57.70
2019-02-06T21:39:20.509Z,59.27
2019-02-06T21:41:50.487Z,59.00
2019-02-06T21:44:21.034Z,59.83
2019-02-06T21:46:50.990Z,59.83
2019-02-06T21:49:57.355Z,58.97
2019-02-06T21:52:27.333Z,55.67
2019-02-06T21:54:57.252Z,55.70
2019-02-06T21:57:27.179Z,56.07
2019-02-06T21:59:57.174Z,59.27
2019-02-06T22:02:27.038Z,63.93
2019-02-06T22:04:57.034Z,68.00
2019-02-06T22:07:26.983Z,67.70
2019-02-06T22:09:57.013Z,61.33
2019-02-06T22:12:28.944Z,61.73
2019-02-06T22:14:59.414Z,58.57
2019-02-06T22:17:30.151Z,60.17
2019-02-06T22:20:00.012Z,57.03
2019-02-06T22:22:29.890Z,58.00
2019-02-06T22:24:59.788Z,60.57
2019-02-06T22:27:29.734Z,59.73
2019-02-06T22:29:59.581Z,60.70
2019-02-06T22:32:29.471Z,62.53
2019-02-06T22:34:59.515Z,65.80
2019-02-06T22:37:29.514Z,62.20
2019-02-06T22:39:59.471Z,64.80
2019-02-06T22:42:29.379Z,65.37
2019-02-06T22:44:59.260Z,68.60
2019-02-06T22:47:29.324Z,67.23
2019-02-06T22:49:59.212Z,71.40
2019-02-06T22:52:29.083Z,71.23
2019-02-06T22:54:59.654Z,72.57
2019-02-06T22:57:30.842Z,76.37
2019-02-06T23:00:00.821Z,75.83
2019-02-06T23:02:30.691Z,78.97
2019-02-06T23:05:00.637Z,80.20
2019-02-06T23:07:31.687Z,76.77
2019-02-06T23:10:01.861Z,79.47
2019-02-06T23:12:31.708Z,77.73
2019-02-06T23:15:01.908Z,76.57
2019-02-06T23:17:31.855Z,81.50
2019-02-06T23:20:03.364Z,83.20
2019-02-06T23:22:35.547Z,83.27
2019-02-06T23:25:06.496Z,79.17
2019-02-06T23:27:36.344Z,80.07
2019-02-06T23:30:07.811Z,81.97
2019-02-06T23:32:37.651Z,78.53
2019-02-06T23:35:08.399Z,76.40
2019-02-06T23:37:38.409Z,79.10
2019-02-06T23:40:10.276Z,78.53
2019-02-06T23:42:40.362Z,80.03
2019-02-06T23:45:10.659Z,81.70
2019-02-06T23:47:40.961Z,81.50
2019-02-06T23:50:11.132Z,75.03
2019-02-06T23:52:41.005Z,74.77
2019-02-06T23:55:11.138Z,73.87
2019-02-06T23:57:41.007Z,75.37
